Time;durP1;ratioP1;P1;durP2;ratioP2;P2;SDS_P1;SDS_P2;PMS_P1;PMS_P2;Temp;Humidity;BMP_temperature;BMP_pressure;BME280_temperature;BME280_humidity;BME280_pressure;Samples;Min_cycle;Max_cycle;Signal;HPM_P1;HPM_P2
2022/01/23 00:00:43;;;;;;;46.65;28.20;;;7.30;99.90;;;;;;5039893;28;20123;-84
2022/01/23 00:03:16;;;;;;;47.35;28.63;;;7.30;99.90;;;;;;5038497;28;20040;-84
2022/01/23 00:05:44;;;;;;;47.47;28.73;;;7.30;99.90;;;;;;5040097;28;20302;-83
2022/01/23 00:08:12;;;;;;;44.03;26.85;;;7.30;99.90;;;;;;5055104;28;20480;-83
2022/01/23 00:10:39;;;;;;;50.30;29.20;;;7.20;99.90;;;;;;5044057;28;20162;-83
2022/01/23 00:13:12;;;;;;;53.58;31.88;;;7.30;99.90;;;;;;5074703;28;20380;-88
2022/01/23 00:18:22;;;;;;;45.78;29.20;;;7.30;99.90;;;;;;5077958;28;20040;-83
2022/01/23 00:20:49;;;;;;;50.58;29.80;;;7.20;99.90;;;;;;5075135;28;20127;-83
2022/01/23 00:31:31;;;;;;;54.28;31.58;;;7.30;99.90;;;;;;5077814;28;20097;-83
2022/01/23 00:33:58;;;;;;;50.33;31.13;;;7.30;99.90;;;;;;5075326;28;20032;-83
2022/01/23 00:36:26;;;;;;;47.38;30.13;;;7.30;99.90;;;;;;5075279;28;20032;-84
2022/01/23 00:38:52;;;;;;;49.88;30.10;;;7.30;99.90;;;;;;5075798;28;20035;-84
2022/01/23 00:41:18;;;;;;;48.00;30.23;;;7.30;99.90;;;;;;5074800;28;20028;-83
2022/01/23 00:43:45;;;;;;;48.92;31.05;;;7.30;99.90;;;;;;5074976;28;20107;-83
2022/01/23 00:51:32;;;;;;;49.88;30.83;;;7.30;99.90;;;;;;5092913;28;20372;-84
2022/01/23 00:53:59;;;;;;;51.60;31.23;;;7.30;99.90;;;;;;5092939;28;20043;-83
2022/01/23 00:56:26;;;;;;;52.45;32.85;;;7.30;99.90;;;;;;5096702;28;20028;-85
2022/01/23 00:58:51;;;;;;;42.15;28.92;;;7.40;99.90;;;;;;5096658;28;20024;-83
2022/01/23 01:01:17;;;;;;;54.25;33.03;;;7.30;99.90;;;;;;5078279;28;20440;-84
2022/01/23 01:03:44;;;;;;;50.72;31.40;;;7.30;99.90;;;;;;5078442;28;20028;-84
2022/01/23 01:06:10;;;;;;;50.42;30.42;;;7.30;99.90;;;;;;5096489;28;20016;-85
2022/01/23 01:08:36;;;;;;;46.65;29.65;;;7.30;99.90;;;;;;5078421;28;20066;-84
2022/01/23 01:11:44;;;;;;;53.45;32.45;;;7.30;99.90;;;;;;5078315;28;20415;-84
2022/01/23 01:33:02;;;;;;;46.30;29.75;;;7.30;99.90;;;;;;5080791;28;20043;-83
2022/01/23 01:37:54;;;;;;;48.78;30.77;;;7.20;99.90;;;;;;5078008;28;20035;-83
2022/01/23 01:40:22;;;;;;;53.47;31.48;;;7.20;99.90;;;;;;5077650;28;20036;-83
2022/01/23 01:42:48;;;;;;;45.47;29.50;;;7.20;99.90;;;;;;5077896;28;20020;-83
2022/01/23 01:45:19;;;;;;;55.85;32.42;;;7.30;99.90;;;;;;5077716;28;20061;-89
2022/01/23 01:47:52;;;;;;;;;;;7.20;99.90;;;;;;5096770;28;20031;-83
2022/01/23 01:50:18;;;;;;;51.53;29.70;;;7.20;99.90;;;;;;5095487;28;19911;-83
2022/01/23 01:52:44;;;;;;;47.75;29.80;;;7.20;99.90;;;;;;5060867;28;20036;-83
2022/01/23 01:55:14;;;;;;;47.70;29.17;;;7.20;99.90;;;;;;5096040;28;20055;-84
2022/01/23 01:57:44;;;;;;;44.72;28.20;;;7.10;99.90;;;;;;5095679;28;20023;-84
2022/01/23 02:00:36;;;;;;;47.58;30.17;;;7.10;99.90;;;;;;5061598;28;20043;-84
2022/01/23 02:08:30;;;;;;;48.65;30.02;;;7.10;99.90;;;;;;5080423;28;20034;-87
2022/01/23 02:12:01;;;;;;;50.42;28.70;;;7.10;99.90;;;;;;5079586;28;20016;-84
2022/01/23 02:14:10;;;;;;;50.20;30.25;;;7.10;99.90;;;;;;5083994;28;20052;-84
2022/01/23 02:17:20;;;;;;;61.55;31.95;;;7.10;99.90;;;;;;5095273;28;20381;-84
2022/01/23 02:55:42;;;;;;;49.95;28.65;;;7.00;99.90;;;;;;5079096;28;20101;-83
2022/01/23 02:58:11;;;;;;;50.33;30.30;;;7.00;99.90;;;;;;5060722;28;20028;-83
2022/01/23 03:00:48;;;;;;;49.25;30.40;;;7.00;99.90;;;;;;5076268;28;20036;-83
2022/01/23 03:03:21;;;;;;;47.10;28.83;;;7.00;99.90;;;;;;5061322;28;20085;-83
2022/01/23 03:06:08;;;;;;;51.30;30.50;;;7.00;99.90;;;;;;5076420;28;20028;-83
2022/01/23 03:08:57;;;;;;;55.67;31.95;;;7.00;99.90;;;;;;5093857;28;20028;-83
2022/01/23 03:14:02;;;;;;;46.75;28.95;;;7.00;99.90;;;;;;5094599;28;20052;-84
2022/01/23 03:30:24;;;;;;;55.80;30.40;;;7.00;99.90;;;;;;5094150;28;20059;-84
2022/01/23 03:32:51;;;;;;;52.33;30.40;;;7.00;99.90;;;;;;5064196;28;20508;-84
2022/01/23 03:35:20;;;;;;;52.58;28.90;;;7.00;99.90;;;;;;5059385;28;20168;-84
2022/01/23 03:37:46;;;;;;;57.08;31.00;;;7.00;99.90;;;;;;5075481;28;20031;-84
2022/01/23 03:40:12;;;;;;;55.47;32.17;;;7.00;99.90;;;;;;5059270;28;20028;-84
2022/01/23 03:42:41;;;;;;;57.03;31.27;;;7.00;99.90;;;;;;5093970;28;20038;-84
2022/01/23 03:45:44;;;;;;;55.25;31.25;;;7.00;99.90;;;;;;5075385;28;20028;-84
2022/01/23 03:50:42;;;;;;;49.70;30.27;;;7.00;99.90;;;;;;5061586;28;20357;-83
2022/01/23 03:53:08;;;;;;;58.03;31.30;;;7.00;99.90;;;;;;5075671;28;20477;-84
2022/01/23 03:55:35;;;;;;;54.95;30.05;;;7.00;99.90;;;;;;5058848;28;20059;-84
2022/01/23 03:58:00;;;;;;;57.00;31.17;;;7.00;99.90;;;;;;5093566;28;20103;-84
2022/01/23 04:00:26;;;;;;;51.72;29.52;;;7.00;99.90;;;;;;5059072;28;20505;-86
2022/01/23 04:02:52;;;;;;;55.47;30.20;;;7.00;99.90;;;;;;5075694;28;20028;-83
2022/01/23 04:05:18;;;;;;;51.90;29.45;;;7.00;99.90;;;;;;5093620;28;20026;-84
2022/01/23 04:07:45;;;;;;;51.72;30.35;;;7.00;99.90;;;;;;5075275;28;20027;-83
2022/01/23 04:10:13;;;;;;;59.70;32.53;;;7.00;99.90;;;;;;5075506;28;20027;-84
2022/01/23 04:12:56;;;;;;;51.88;29.63;;;7.00;99.90;;;;;;5074887;28;20039;-84
2022/01/23 04:33:55;;;;;;;51.05;29.30;;;7.00;99.90;;;;;;5081638;28;20051;-83
2022/01/23 05:01:05;;;;;;;51.47;29.55;;;6.90;99.90;;;;;;5096584;28;20089;-85
2022/01/23 05:06:24;;;;;;;54.88;31.20;;;7.00;99.90;;;;;;5096770;28;20062;-85
2022/01/23 05:08:50;;;;;;;52.47;29.38;;;7.00;99.90;;;;;;5062692;28;20023;-85
2022/01/23 05:11:16;;;;;;;55.08;29.33;;;7.00;99.90;;;;;;5061859;28;20031;-85
2022/01/23 05:13:42;;;;;;;52.75;30.63;;;7.00;99.90;;;;;;5096122;28;20055;-85
2022/01/23 05:16:10;;;;;;;55.90;31.58;;;7.00;99.90;;;;;;5061961;28;20036;-85
2022/01/23 05:18:36;;;;;;;59.13;30.15;;;7.10;99.90;;;;;;5078181;28;20020;-86
2022/01/23 05:24:05;;;;;;;58.97;30.13;;;7.00;99.90;;;;;;5013992;28;20073;-85
2022/01/23 05:26:34;;;;;;;61.65;31.52;;;7.00;99.90;;;;;;5032619;28;20063;-85
2022/01/23 05:29:00;;;;;;;53.30;30.38;;;7.00;99.90;;;;;;5045737;28;20468;-85
2022/01/23 05:31:26;;;;;;;54.20;30.45;;;7.10;99.90;;;;;;5061475;28;20054;-85
2022/01/23 05:33:51;;;;;;;50.53;29.40;;;7.00;99.90;;;;;;5044561;28;20032;-85
2022/01/23 05:36:17;;;;;;;55.22;29.77;;;7.00;99.90;;;;;;5078014;28;20032;-84
2022/01/23 05:38:43;;;;;;;49.20;30.60;;;7.00;99.90;;;;;;5061099;28;20028;-85
2022/01/23 05:41:08;;;;;;;56.75;30.27;;;7.00;99.90;;;;;;5060556;28;20024;-85
2022/01/23 05:43:34;;;;;;;58.65;31.63;;;7.00;99.90;;;;;;5077864;28;20031;-85
2022/01/23 05:46:00;;;;;;;55.40;30.17;;;7.00;99.90;;;;;;5078131;28;20036;-84
2022/01/23 05:48:25;;;;;;;53.00;30.05;;;7.00;99.90;;;;;;5077978;28;20377;-85
2022/01/23 05:50:51;;;;;;;59.40;30.88;;;7.00;99.90;;;;;;5061052;28;20388;-85
2022/01/23 05:53:17;;;;;;;57.28;30.55;;;7.00;99.90;;;;;;5095411;28;20198;-85
2022/01/23 05:55:43;;;;;;;60.63;31.98;;;7.00;99.90;;;;;;5060721;28;20540;-85
2022/01/23 05:58:08;;;;;;;60.33;31.77;;;7.00;99.90;;;;;;5044289;28;20028;-85
2022/01/23 06:00:34;;;;;;;61.28;32.22;;;7.00;99.90;;;;;;5077818;28;20111;-85
2022/01/23 06:03:00;;;;;;;62.17;30.73;;;7.00;99.90;;;;;;5077430;28;20039;-86
2022/01/23 06:05:25;;;;;;;51.08;27.70;;;7.00;99.90;;;;;;5060928;28;20031;-85
2022/01/23 06:07:51;;;;;;;50.38;28.05;;;7.00;99.90;;;;;;5060686;28;20028;-85
2022/01/23 06:10:26;;;;;;;62.65;29.67;;;6.90;99.90;;;;;;5077441;28;20105;-85
2022/01/23 06:12:52;;;;;;;50.90;28.98;;;6.90;99.90;;;;;;5046162;28;20539;-85
2022/01/23 06:15:18;;;;;;;44.83;27.20;;;6.90;99.90;;;;;;5057065;28;20052;-85
2022/01/23 06:17:45;;;;;;;51.58;28.13;;;6.90;99.90;;;;;;5073802;28;20029;-85
2022/01/23 06:20:12;;;;;;;58.42;28.85;;;6.90;99.90;;;;;;5073853;28;20029;-85
2022/01/23 06:22:38;;;;;;;60.55;31.70;;;6.90;99.90;;;;;;5073821;28;20036;-85
2022/01/23 06:25:08;;;;;;;57.30;31.13;;;6.90;99.90;;;;;;5073591;28;20427;-85
2022/01/23 06:27:34;;;;;;;58.95;30.65;;;6.90;99.90;;;;;;5073773;28;20024;-85
2022/01/23 06:30:00;;;;;;;57.85;31.13;;;6.90;99.90;;;;;;5074377;28;20032;-87
2022/01/23 06:32:26;;;;;;;57.03;30.15;;;6.90;99.90;;;;;;5074537;28;20032;-85
2022/01/23 06:34:54;;;;;;;52.58;28.90;;;6.90;99.90;;;;;;5073108;28;20078;-85
2022/01/23 06:37:19;;;;;;;56.72;28.80;;;6.90;99.90;;;;;;5073334;28;20524;-85
2022/01/23 06:39:45;;;;;;;65.43;30.45;;;6.90;99.90;;;;;;5073328;28;20123;-85
2022/01/23 06:42:11;;;;;;;51.20;29.88;;;6.90;99.90;;;;;;5040211;28;20035;-85
2022/01/23 06:44:38;;;;;;;46.72;26.88;;;6.90;99.90;;;;;;5040216;28;20433;-85
2022/01/23 06:47:04;;;;;;;50.00;29.08;;;6.90;99.90;;;;;;5056678;28;20623;-85
2022/01/23 06:49:30;;;;;;;49.20;26.75;;;6.90;99.90;;;;;;5056944;28;20078;-84
2022/01/23 06:51:56;;;;;;;40.28;22.40;;;6.90;99.90;;;;;;5071966;28;20471;-85
2022/01/23 06:54:22;;;;;;;44.20;23.27;;;6.80;99.90;;;;;;5073424;28;20025;-85
2022/01/23 06:56:48;;;;;;;43.08;24.63;;;6.80;99.90;;;;;;5072763;28;20063;-85
2022/01/23 06:59:14;;;;;;;45.80;27.13;;;6.80;99.90;;;;;;5056226;28;20106;-85
2022/01/23 07:01:39;;;;;;;51.08;28.50;;;6.90;99.90;;;;;;5073263;28;20105;-85
2022/01/23 07:04:05;;;;;;;45.15;26.55;;;6.80;99.90;;;;;;5039706;28;20082;-85
2022/01/23 07:06:31;;;;;;;56.95;31.88;;;6.80;99.90;;;;;;5073098;28;20534;-84
2022/01/23 07:08:56;;;;;;;49.40;27.67;;;6.80;99.90;;;;;;5056103;28;20037;-85
2022/01/23 07:11:22;;;;;;;52.97;29.17;;;6.80;99.90;;;;;;5056346;28;20028;-85
2022/01/23 07:13:48;;;;;;;51.03;27.55;;;6.80;99.90;;;;;;5081229;28;20506;-85
2022/01/23 07:16:13;;;;;;;64.78;31.42;;;6.80;99.90;;;;;;5043538;28;20564;-85
2022/01/23 07:18:39;;;;;;;66.90;32.55;;;6.80;99.90;;;;;;5043042;28;20020;-84
2022/01/23 07:21:06;;;;;;;47.15;28.63;;;6.80;99.90;;;;;;5093919;28;20442;-85
2022/01/23 07:23:32;;;;;;;60.53;30.67;;;6.80;99.90;;;;;;5075993;28;20027;-84
2022/01/23 07:25:59;;;;;;;56.53;29.77;;;6.80;99.90;;;;;;5042607;28;20032;-85
2022/01/23 07:28:35;;;;;;;53.72;29.02;;;6.80;99.90;;;;;;5076148;28;20024;-85
2022/01/23 07:31:04;;;;;;;61.60;32.08;;;6.80;99.90;;;;;;5060733;28;20081;-85
2022/01/23 07:33:30;;;;;;;64.68;32.88;;;6.80;99.90;;;;;;5075940;28;20073;-85
2022/01/23 07:35:56;;;;;;;58.88;30.98;;;6.80;99.90;;;;;;5094234;28;20406;-85
2022/01/23 07:38:21;;;;;;;59.60;29.90;;;6.80;99.90;;;;;;5076093;28;20522;-85
2022/01/23 07:40:51;;;;;;;53.72;29.35;;;6.80;99.90;;;;;;5058839;28;20028;-85
2022/01/23 07:43:17;;;;;;;52.28;28.50;;;6.80;99.90;;;;;;5075846;28;20509;-85
2022/01/23 07:45:43;;;;;;;51.40;29.15;;;6.80;99.90;;;;;;5093852;28;20376;-85
2022/01/23 07:48:10;;;;;;;61.28;31.83;;;6.70;99.90;;;;;;5093538;28;20020;-85
2022/01/23 07:50:36;;;;;;;60.67;31.63;;;6.80;99.90;;;;;;5075658;28;20532;-85
2022/01/23 07:53:03;;;;;;;55.05;29.95;;;6.80;99.90;;;;;;5058679;28;20472;-86
2022/01/23 07:55:28;;;;;;;69.22;34.65;;;6.70;99.90;;;;;;5058868;28;20035;-85
2022/01/23 07:57:59;;;;;;;91.55;36.42;;;6.70;99.90;;;;;;5058628;28;20028;-85
2022/01/23 08:00:24;;;;;;;60.67;32.45;;;6.70;99.90;;;;;;5075464;28;20024;-84
2022/01/23 08:02:50;;;;;;;62.15;32.35;;;6.80;99.90;;;;;;5093289;28;20036;-85
2022/01/23 08:05:15;;;;;;;60.33;31.83;;;6.80;99.90;;;;;;5075415;28;20028;-84
2022/01/23 08:07:41;;;;;;;60.03;31.92;;;6.80;99.90;;;;;;5075539;28;20097;-84
2022/01/23 08:10:08;;;;;;;64.88;33.20;;;6.70;99.90;;;;;;5075374;28;20036;-84
2022/01/23 08:12:35;;;;;;;62.15;31.83;;;6.70;99.90;;;;;;5075026;28;20016;-84
2022/01/23 08:15:03;;;;;;;59.58;29.60;;;6.70;99.90;;;;;;5075027;28;20051;-85
2022/01/23 08:17:29;;;;;;;61.10;30.30;;;6.70;99.90;;;;;;5042361;28;20032;-85
2022/01/23 08:19:56;;;;;;;63.00;31.95;;;6.70;99.90;;;;;;5059601;28;20468;-86
2022/01/23 08:22:23;;;;;;;56.58;29.25;;;6.70;99.90;;;;;;5075456;28;20518;-85
2022/01/23 08:24:51;;;;;;;61.22;31.13;;;6.70;99.90;;;;;;5094273;28;20052;-85
2022/01/23 08:27:17;;;;;;;61.53;30.92;;;6.70;99.90;;;;;;5094003;28;20073;-84
2022/01/23 08:29:43;;;;;;;66.60;31.00;;;6.80;99.90;;;;;;5058514;28;20464;-85
2022/01/23 08:32:10;;;;;;;77.03;33.38;;;6.80;99.90;;;;;;5075144;28;20032;-85
2022/01/23 08:34:36;;;;;;;66.38;32.58;;;6.80;99.90;;;;;;5075305;28;20066;-85
2022/01/23 08:37:07;;;;;;;74.93;33.58;;;6.80;99.90;;;;;;5075185;28;20065;-87
2022/01/23 08:39:35;;;;;;;68.68;33.50;;;6.90;99.90;;;;;;5075077;28;20465;-85
2022/01/23 08:42:11;;;;;;;66.30;32.08;;;6.90;99.90;;;;;;5058720;28;20132;-85
2022/01/23 08:44:37;;;;;;;77.53;34.30;;;6.90;99.90;;;;;;5093730;28;20104;-85
2022/01/23 08:47:04;;;;;;;65.68;31.80;;;6.90;99.90;;;;;;5075315;28;20016;-85
2022/01/23 08:49:30;;;;;;;64.45;32.47;;;6.90;99.90;;;;;;5075638;28;20016;-84
2022/01/23 08:51:57;;;;;;;70.78;32.45;;;6.90;99.90;;;;;;5058762;28;20051;-86
2022/01/23 08:54:24;;;;;;;60.85;31.45;;;6.90;99.90;;;;;;5059141;28;20032;-82
2022/01/23 08:56:50;;;;;;;77.80;34.38;;;7.00;99.90;;;;;;5075962;28;20031;-86
2022/01/23 08:59:16;;;;;;;62.67;31.98;;;7.00;99.90;;;;;;5075208;28;20028;-84
2022/01/23 09:01:42;;;;;;;79.50;33.90;;;7.00;99.90;;;;;;5075999;28;20095;-84
2022/01/23 09:04:08;;;;;;;60.83;31.13;;;7.00;99.90;;;;;;5058353;28;20036;-83
2022/01/23 09:06:34;;;;;;;73.30;33.00;;;7.10;99.90;;;;;;5059689;28;20377;-84
2022/01/23 09:09:01;;;;;;;60.90;30.85;;;7.00;99.90;;;;;;5094693;28;20028;-83
2022/01/23 09:11:39;;;;;;;64.45;31.38;;;7.10;99.90;;;;;;5075032;28;20016;-84
2022/01/23 09:14:10;;;;;;;52.42;27.95;;;7.10;99.90;;;;;;5073967;28;20048;-83
2022/01/23 09:16:41;;;;;;;61.00;27.63;;;7.10;99.90;;;;;;5060935;28;20040;-84
2022/01/23 09:19:07;;;;;;;;;;;7.10;99.90;;;;;;5078897;28;20064;-84
2022/01/23 09:21:34;;;;;;;57.10;27.83;;;7.20;99.90;;;;;;5078380;28;19908;-84
2022/01/23 09:24:00;;;;;;;50.00;27.45;;;7.10;99.90;;;;;;5077901;28;20028;-84
2022/01/23 09:26:27;;;;;;;53.83;28.75;;;7.10;99.90;;;;;;5078833;28;20048;-83
2022/01/23 09:28:56;;;;;;;52.33;27.63;;;7.10;99.90;;;;;;5096122;28;20024;-84
2022/01/23 09:31:33;;;;;;;55.35;27.20;;;7.10;99.90;;;;;;5095916;28;20028;-83
2022/01/23 09:33:59;;;;;;;57.60;29.20;;;7.20;99.90;;;;;;5079718;28;20016;-84
2022/01/23 09:36:25;;;;;;;53.78;26.95;;;7.20;99.90;;;;;;5077965;28;20032;-83
2022/01/23 09:38:51;;;;;;;47.80;26.10;;;7.20;99.90;;;;;;5061388;28;20063;-83
2022/01/23 09:41:20;;;;;;;51.75;27.50;;;7.20;99.90;;;;;;5095864;28;20024;-83
2022/01/23 09:43:46;;;;;;;49.80;26.73;;;7.20;99.90;;;;;;5077794;28;20028;-83
2022/01/23 09:46:13;;;;;;;56.88;27.48;;;7.20;99.90;;;;;;5077592;28;20020;-83
2022/01/23 09:48:43;;;;;;;46.15;24.92;;;7.30;99.90;;;;;;5077712;28;20476;-83
2022/01/23 09:51:09;;;;;;;51.58;28.77;;;7.30;99.90;;;;;;5077754;28;20039;-83
2022/01/23 09:53:38;;;;;;;48.22;25.45;;;7.30;99.90;;;;;;5077794;28;20541;-83
2022/01/23 09:56:05;;;;;;;52.53;25.95;;;7.40;99.90;;;;;;5095951;28;20586;-84
2022/01/23 09:58:38;;;;;;;49.80;25.73;;;7.40;99.90;;;;;;5078281;28;20071;-83
2022/01/23 10:01:04;;;;;;;47.50;24.40;;;7.40;99.90;;;;;;5077850;28;20043;-84
2022/01/23 10:03:30;;;;;;;50.70;25.45;;;7.40;99.90;;;;;;5061154;28;20028;-83
2022/01/23 10:05:56;;;;;;;44.60;25.27;;;7.50;99.90;;;;;;5095827;28;20024;-84
2022/01/23 10:08:23;;;;;;;44.42;26.50;;;7.50;99.90;;;;;;5077359;28;20028;-83
2022/01/23 10:10:54;;;;;;;46.28;26.05;;;7.50;99.90;;;;;;5077531;28;20024;-83
2022/01/23 10:13:25;;;;;;;46.70;26.42;;;7.40;99.90;;;;;;5076971;28;20032;-83
2022/01/23 10:15:51;;;;;;;50.35;26.30;;;7.50;99.90;;;;;;5077601;28;20024;-82
2022/01/23 10:18:18;;;;;;;42.85;25.05;;;7.50;99.90;;;;;;5077194;28;20487;-83
2022/01/23 10:20:46;;;;;;;49.55;27.80;;;7.50;99.90;;;;;;5060776;28;20032;-83
2022/01/23 10:23:12;;;;;;;47.38;25.48;;;7.50;99.90;;;;;;5060968;28;20108;-84
2022/01/23 10:25:43;;;;;;;41.63;24.88;;;7.50;99.90;;;;;;5077717;28;20028;-83
2022/01/23 10:28:17;;;;;;;45.00;26.00;;;7.50;99.90;;;;;;5076894;28;20032;-84
2022/01/23 10:30:50;;;;;;;48.58;25.20;;;7.50;99.90;;;;;;5077124;28;20017;-84
2022/01/23 10:33:21;;;;;;;44.35;24.17;;;7.50;99.90;;;;;;5076808;28;20037;-84
2022/01/23 10:36:10;;;;;;;43.35;24.90;;;7.50;99.90;;;;;;5094872;28;20035;-84
2022/01/23 10:38:57;;;;;;;43.25;26.52;;;7.50;99.90;;;;;;5077009;28;20436;-83
2022/01/23 10:41:42;;;;;;;46.35;26.73;;;7.50;99.90;;;;;;5076675;28;20020;-82
2022/01/23 10:49:48;;;;;;;42.85;24.60;;;7.50;99.90;;;;;;5095168;28;20028;-83
2022/01/23 10:52:36;;;;;;;40.55;23.70;;;7.50;99.90;;;;;;5076479;28;20353;-82
2022/01/23 10:55:27;;;;;;;45.42;23.77;;;7.50;99.90;;;;;;5094873;28;20032;-83
2022/01/23 10:57:57;;;;;;;35.38;21.75;;;7.50;99.90;;;;;;5087093;28;20043;-85
2022/01/23 11:00:27;;;;;;;34.47;21.20;;;7.50;99.90;;;;;;5076681;28;20105;-83
2022/01/23 11:02:54;;;;;;;35.78;20.70;;;7.50;99.90;;;;;;5076690;28;20035;-84
2022/01/23 11:05:22;;;;;;;38.13;20.95;;;7.60;99.90;;;;;;5076450;28;20051;-82
2022/01/23 11:07:49;;;;;;;35.92;20.05;;;7.60;99.90;;;;;;5060164;28;20071;-83
2022/01/23 11:10:20;;;;;;;35.38;21.77;;;7.60;99.90;;;;;;5076549;28;20368;-83
2022/01/23 11:18:04;;;;;;;35.50;19.75;;;7.70;99.90;;;;;;5101050;28;19955;-82
2022/01/23 11:20:37;;;;;;;33.47;19.00;;;7.60;99.90;;;;;;5096991;28;20161;-82
2022/01/23 11:23:30;;;;;;;30.27;18.88;;;7.70;99.90;;;;;;5075849;28;20032;-82
2022/01/23 11:25:56;;;;;;;32.72;19.05;;;7.70;99.90;;;;;;5094214;28;20020;-83
2022/01/23 11:28:39;;;;;;;28.90;16.70;;;7.70;99.90;;;;;;5094019;28;20085;-83
2022/01/23 11:31:07;;;;;;;29.65;17.13;;;7.70;99.90;;;;;;5075800;28;20027;-83
2022/01/23 11:33:32;;;;;;;27.30;14.68;;;7.70;99.90;;;;;;5058962;28;20058;-83
2022/01/23 11:35:59;;;;;;;26.58;15.18;;;7.70;99.90;;;;;;5075684;28;20376;-85
2022/01/23 11:38:25;;;;;;;24.50;14.60;;;7.70;99.90;;;;;;5075028;28;20044;-83
2022/01/23 11:54:51;;;;;;;2.83;0.85;;;7.70;99.90;;;;;;5078386;28;20404;-84
2022/01/23 11:57:43;;;;;;;1.00;0.63;;;7.70;99.90;;;;;;5074744;28;20028;-84
2022/01/23 12:00:31;;;;;;;2.30;0.70;;;7.70;99.90;;;;;;5075510;28;20090;-83
2022/01/23 12:03:13;;;;;;;1.80;1.10;;;7.70;99.90;;;;;;5075824;28;20380;-83
2022/01/23 12:05:50;;;;;;;1.77;1.20;;;7.70;99.90;;;;;;5093555;28;20494;-83
2022/01/23 12:08:22;;;;;;;1.95;1.20;;;7.80;99.90;;;;;;5075370;28;20525;-87
2022/01/23 12:11:17;;;;;;;1.17;0.93;;;7.80;99.90;;;;;;5094139;28;20498;-82
2022/01/23 12:18:51;;;;;;;3.67;2.22;;;7.80;99.90;;;;;;5078726;28;20046;-82
2022/01/23 12:21:30;;;;;;;4.43;2.83;;;7.80;99.90;;;;;;5061129;28;20032;-90
2022/01/23 12:23:58;;;;;;;5.90;3.05;;;7.70;99.90;;;;;;5097108;28;20054;-85
2022/01/23 12:26:24;;;;;;;6.43;3.22;;;7.80;99.90;;;;;;5116585;28;20008;-82
2022/01/23 12:28:49;;;;;;;5.70;3.30;;;7.80;99.90;;;;;;5098500;28;20039;-83
2022/01/23 12:31:15;;;;;;;5.97;3.13;;;7.80;99.90;;;;;;5099279;28;20012;-85
2022/01/23 12:33:48;;;;;;;4.07;2.42;;;7.80;99.90;;;;;;5117071;28;20075;-82
2022/01/23 12:36:14;;;;;;;3.85;2.28;;;7.80;99.90;;;;;;5086245;28;20016;-83
2022/01/23 12:38:47;;;;;;;2.90;1.80;;;7.80;99.90;;;;;;5094249;28;20024;-83
2022/01/23 12:41:34;;;;;;;2.60;1.60;;;7.80;99.90;;;;;;5075400;28;20027;-82
2022/01/23 12:44:05;;;;;;;2.58;1.42;;;7.90;99.90;;;;;;5075340;28;20024;-83
2022/01/23 12:46:47;;;;;;;1.45;1.10;;;7.90;99.90;;;;;;5093259;28;20021;-83
2022/01/23 12:49:25;;;;;;;1.73;0.93;;;7.90;99.90;;;;;;5076001;28;20092;-83
2022/01/23 12:52:13;;;;;;;1.27;0.90;;;7.90;99.90;;;;;;5097392;28;20024;-81
2022/01/23 12:54:50;;;;;;;1.00;0.82;;;7.90;99.90;;;;;;5097321;28;20061;-82
2022/01/23 12:57:19;;;;;;;1.67;0.82;;;8.00;99.90;;;;;;5097358;28;20020;-82
2022/01/23 12:59:58;;;;;;;1.52;0.60;;;8.00;99.90;;;;;;5097352;28;20024;-83
2022/01/23 13:02:29;;;;;;;1.00;0.80;;;8.00;99.90;;;;;;5097162;28;20111;-83
2022/01/23 13:04:56;;;;;;;1.02;0.80;;;8.00;99.90;;;;;;5097249;28;20042;-83
2022/01/23 13:07:38;;;;;;;0.95;0.85;;;8.10;99.90;;;;;;5078561;28;20482;-83
2022/01/23 13:10:37;;;;;;;1.50;1.05;;;8.10;99.90;;;;;;5080916;28;20048;-82
2022/01/23 13:13:51;;;;;;;0.70;0.50;;;8.10;99.90;;;;;;5097055;28;20089;-83
2022/01/23 13:32:26;;;;;;;2.35;1.63;;;7.90;99.90;;;;;;5076231;28;20036;-83
2022/01/23 13:34:59;;;;;;;1.60;1.00;;;8.00;99.90;;;;;;5076287;28;20119;-85
2022/01/23 13:37:27;;;;;;;1.30;0.88;;;7.90;99.90;;;;;;5058187;28;20098;-87
2022/01/23 13:40:02;;;;;;;4.30;0.85;;;8.00;99.90;;;;;;5058319;28;20020;-84
2022/01/23 13:59:34;;;;;;;1.40;0.90;;;7.90;99.90;;;;;;5054031;28;20033;-84
2022/01/23 14:02:16;;;;;;;2.05;1.02;;;8.00;99.90;;;;;;5057214;28;20128;-84
2022/01/23 14:04:48;;;;;;;1.27;1.10;;;7.90;99.90;;;;;;5075507;28;20025;-84
2022/01/23 14:07:22;;;;;;;1.50;1.15;;;7.90;99.90;;;;;;5075550;28;20017;-83
2022/01/23 14:09:48;;;;;;;3.17;1.40;;;7.90;99.90;;;;;;5057418;28;20024;-84
2022/01/23 14:12:16;;;;;;;1.83;1.17;;;8.00;99.90;;;;;;5074147;28;20381;-83
2022/01/23 14:14:51;;;;;;;1.75;1.30;;;8.00;99.90;;;;;;5073671;28;20523;-84
2022/01/23 14:17:17;;;;;;;2.45;1.60;;;8.00;99.90;;;;;;5057317;28;20115;-84
2022/01/23 14:19:56;;;;;;;2.45;1.50;;;8.00;99.90;;;;;;5074736;28;20025;-84
2022/01/23 14:22:29;;;;;;;3.40;1.50;;;8.00;99.90;;;;;;5057243;28;20071;-84
2022/01/23 14:25:18;;;;;;;2.42;1.60;;;8.00;99.90;;;;;;5075248;28;20020;-84
2022/01/23 14:28:07;;;;;;;2.92;1.70;;;8.10;99.90;;;;;;5074871;28;20025;-84
2022/01/23 14:30:41;;;;;;;3.00;1.67;;;8.10;99.90;;;;;;5056921;28;20454;-85
2022/01/23 14:33:21;;;;;;;2.85;1.60;;;8.10;99.90;;;;;;5056664;28;20032;-84
2022/01/23 14:35:47;;;;;;;2.40;1.57;;;8.10;99.90;;;;;;5074536;28;20570;-89
2022/01/23 14:38:20;;;;;;;2.42;1.45;;;8.10;99.90;;;;;;5073465;28;20271;-84
2022/01/23 14:41:00;;;;;;;3.97;1.73;;;8.10;99.90;;;;;;5056651;28;20419;-84
2022/01/23 14:43:39;;;;;;;2.15;1.50;;;8.20;99.90;;;;;;5073466;28;20353;-84
2022/01/23 14:46:08;;;;;;;1.73;1.38;;;8.10;99.90;;;;;;5056715;28;20032;-87
2022/01/23 14:48:39;;;;;;;2.28;1.50;;;8.20;99.90;;;;;;5056604;28;20027;-85
2022/01/23 14:51:06;;;;;;;2.92;1.60;;;8.20;99.90;;;;;;5056585;28;20028;-84
2022/01/23 14:53:36;;;;;;;3.22;1.75;;;8.20;99.90;;;;;;5056481;28;20033;-86
2022/01/23 14:56:04;;;;;;;3.38;2.00;;;8.20;99.90;;;;;;5073450;28;20427;-85
2022/01/23 14:58:32;;;;;;;3.25;1.92;;;8.20;99.90;;;;;;5074847;28;20057;-87
2022/01/23 15:00:58;;;;;;;3.58;1.80;;;8.20;99.90;;;;;;5073146;28;20029;-84
2022/01/23 15:03:26;;;;;;;3.35;1.98;;;8.20;99.90;;;;;;5074430;28;20465;-86
2022/01/23 15:05:53;;;;;;;3.13;2.10;;;8.20;99.90;;;;;;5056122;28;20020;-86
2022/01/23 15:08:22;;;;;;;2.50;1.60;;;8.20;99.90;;;;;;5056555;28;20035;-86
2022/01/23 15:10:50;;;;;;;3.15;1.63;;;8.20;99.90;;;;;;5056222;28;20059;-85
2022/01/23 15:13:16;;;;;;;4.45;1.80;;;8.20;99.90;;;;;;5073344;28;20024;-85
2022/01/23 15:15:42;;;;;;;2.95;1.92;;;8.20;99.90;;;;;;5055626;28;20087;-85
2022/01/23 15:18:09;;;;;;;2.70;1.63;;;8.10;99.90;;;;;;5056217;28;20154;-85
2022/01/23 15:20:35;;;;;;;2.10;1.48;;;8.20;99.90;;;;;;5073003;28;20060;-90
2022/01/23 15:23:04;;;;;;;3.03;1.70;;;8.20;99.90;;;;;;5055941;28;20074;-86
2022/01/23 15:25:31;;;;;;;2.95;1.90;;;8.20;99.90;;;;;;5055594;28;20024;-85
2022/01/23 15:27:57;;;;;;;3.72;2.20;;;8.20;99.90;;;;;;5072523;28;20423;-84
2022/01/23 15:30:24;;;;;;;4.43;3.08;;;8.20;99.90;;;;;;5055813;28;20017;-84
2022/01/23 15:32:51;;;;;;;2.70;1.85;;;8.20;99.90;;;;;;5055584;28;20031;-85
2022/01/23 15:35:18;;;;;;;3.05;2.05;;;8.20;99.90;;;;;;5087375;28;20024;-84
2022/01/23 15:37:44;;;;;;;194.85;113.20;;;8.20;99.90;;;;;;5093794;28;20047;-85
2022/01/23 15:40:12;;;;;;;163.93;95.40;;;8.20;99.90;;;;;;5058991;28;20024;-84
2022/01/23 15:42:42;;;;;;;133.88;77.95;;;8.20;99.90;;;;;;5075479;28;20039;-86
2022/01/23 15:45:08;;;;;;;100.07;56.63;;;8.20;99.90;;;;;;5078154;28;20452;-85
2022/01/23 15:47:35;;;;;;;61.10;36.50;;;8.20;99.90;;;;;;5059053;28;20046;-85
2022/01/23 15:50:02;;;;;;;29.13;17.35;;;8.20;99.90;;;;;;5058946;28;20142;-86
2022/01/23 15:52:28;;;;;;;14.95;8.73;;;8.20;99.90;;;;;;5075588;28;20485;-85
2022/01/23 15:54:53;;;;;;;10.70;5.95;;;8.10;99.90;;;;;;5075292;28;20119;-85
2022/01/23 15:57:20;;;;;;;8.18;3.92;;;8.20;99.90;;;;;;5075455;28;20113;-84
2022/01/23 15:59:46;;;;;;;5.53;3.58;;;8.20;99.90;;;;;;5075443;28;20117;-85
2022/01/23 16:02:13;;;;;;;4.93;3.20;;;8.20;99.90;;;;;;5075370;28;20431;-86
2022/01/23 16:04:39;;;;;;;5.47;3.58;;;8.20;99.90;;;;;;5075185;28;20024;-91
2022/01/23 16:07:12;;;;;;;5.78;3.50;;;8.20;99.90;;;;;;5075374;28;20021;-86
2022/01/23 16:09:38;;;;;;;6.40;4.10;;;8.20;99.90;;;;;;5093537;28;20020;-85
2022/01/23 16:12:05;;;;;;;8.88;5.13;;;8.20;99.90;;;;;;5075420;28;20099;-88
2022/01/23 16:14:30;;;;;;;10.88;5.30;;;8.20;99.90;;;;;;5074961;28;20465;-85
2022/01/23 16:16:56;;;;;;;7.82;5.07;;;8.20;99.90;;;;;;5041989;28;20024;-86
2022/01/23 16:19:22;;;;;;;8.70;4.88;;;8.20;99.90;;;;;;5075001;28;20085;-86
2022/01/23 16:21:51;;;;;;;7.22;4.80;;;8.20;99.90;;;;;;5058572;28;20056;-86
2022/01/23 16:24:17;;;;;;;7.00;4.43;;;8.20;99.90;;;;;;5075130;28;20118;-86
2022/01/23 16:26:43;;;;;;;6.45;4.07;;;8.20;99.90;;;;;;5058682;28;20031;-87